createdAt,value
2023-09-25T00:00:36.356Z,3.33
2023-09-25T00:03:06.624Z,2.97
2023-09-25T00:05:36.303Z,3.37
2023-09-25T00:08:04.918Z,2.87
2023-09-25T00:10:33.431Z,2.83
2023-09-25T00:13:03.581Z,3.10
2023-09-25T00:15:32.153Z,3.30
2023-09-25T00:18:00.878Z,2.97
2023-09-25T00:20:29.591Z,4.10
2023-09-25T00:22:59.234Z,3.73
2023-09-25T00:25:29.746Z,3.23
2023-09-25T00:27:58.053Z,3.37
2023-09-25T00:30:26.288Z,3.40
2023-09-25T00:32:54.760Z,3.60
2023-09-25T00:35:23.696Z,3.17
2023-09-25T00:37:51.850Z,3.27
2023-09-25T00:40:25.733Z,3.73
2023-09-25T00:42:55.970Z,3.33
2023-09-25T00:45:24.712Z,2.77
2023-09-25T00:47:54.674Z,3.33
2023-09-25T00:50:23.180Z,3.53
2023-09-25T00:52:51.395Z,3.57
2023-09-25T00:55:21.009Z,3.53
2023-09-25T00:57:51.536Z,3.10
2023-09-25T01:00:20.305Z,3.70
2023-09-25T01:02:49.669Z,2.77
2023-09-25T01:05:18.308Z,3.73
2023-09-25T01:07:46.989Z,3.47
2023-09-25T01:10:17.591Z,3.63
2023-09-25T01:12:49.966Z,3.20
2023-09-25T01:15:18.492Z,3.60
2023-09-25T01:17:46.882Z,3.83
2023-09-25T01:20:19.016Z,3.53
2023-09-25T01:22:50.928Z,3.90
2023-09-25T01:25:20.927Z,3.43
2023-09-25T01:27:50.083Z,3.50
2023-09-25T01:30:19.330Z,3.97
2023-09-25T01:32:49.466Z,3.80
2023-09-25T01:35:19.976Z,3.73
2023-09-25T01:37:50.679Z,3.77
2023-09-25T01:40:19.663Z,3.50
2023-09-25T01:42:48.716Z,3.60
2023-09-25T01:45:19.728Z,3.60
2023-09-25T01:47:52.321Z,4.00
2023-09-25T01:50:21.816Z,3.50
2023-09-25T01:52:55.876Z,3.87
2023-09-25T01:55:24.926Z,3.73
2023-09-25T01:57:53.273Z,3.57
2023-09-25T02:00:22.049Z,3.40
2023-09-25T02:02:50.545Z,4.63
2023-09-25T02:05:18.914Z,4.17
2023-09-25T02:07:47.241Z,4.17
2023-09-25T02:10:17.242Z,3.97
2023-09-25T02:12:45.547Z,3.37
2023-09-25T02:15:13.829Z,3.57
2023-09-25T02:17:42.213Z,3.83
2023-09-25T02:20:21.689Z,3.47
2023-09-25T02:22:50.766Z,3.50
2023-09-25T02:25:20.523Z,3.23
2023-09-25T02:27:48.912Z,2.90
2023-09-25T02:30:17.662Z,3.70
2023-09-25T02:32:46.873Z,3.80
2023-09-25T02:35:15.481Z,3.00
2023-09-25T02:37:45.778Z,2.67
2023-09-25T02:40:15.160Z,3.50
2023-09-25T02:42:46.509Z,3.33
2023-09-25T02:45:15.173Z,3.10
2023-09-25T02:47:43.578Z,3.10
2023-09-25T02:50:12.584Z,3.13
2023-09-25T02:52:40.701Z,3.20
2023-09-25T02:55:10.801Z,4.07
2023-09-25T02:57:39.168Z,3.47
2023-09-25T03:00:12.771Z,3.50
2023-09-25T03:02:42.112Z,3.47
2023-09-25T03:05:11.294Z,3.40
2023-09-25T03:07:40.063Z,3.37
2023-09-25T03:10:09.351Z,3.03
2023-09-25T03:12:37.677Z,4.10
2023-09-25T03:15:08.598Z,3.00
2023-09-25T03:17:37.566Z,2.73
2023-09-25T03:20:11.138Z,2.90
2023-09-25T03:22:39.402Z,3.10
2023-09-25T03:25:08.381Z,3.30
2023-09-25T03:27:36.545Z,3.10
2023-09-25T03:30:06.412Z,3.17
2023-09-25T03:32:36.119Z,2.73
2023-09-25T03:35:05.273Z,2.57
2023-09-25T03:37:33.644Z,2.83
2023-09-25T03:40:01.799Z,2.80
2023-09-25T03:42:30.073Z,2.67
2023-09-25T03:44:59.041Z,3.27
2023-09-25T03:47:27.371Z,2.90
2023-09-25T03:49:57.325Z,2.43
2023-09-25T03:52:25.880Z,2.30
2023-09-25T03:54:54.009Z,2.33
2023-09-25T03:57:22.683Z,2.10
2023-09-25T03:59:51.646Z,2.40
2023-09-25T04:02:19.958Z,2.23
2023-09-25T04:04:48.379Z,2.40
2023-09-25T04:07:18.018Z,2.97
2023-09-25T04:09:46.165Z,2.37
2023-09-25T04:12:15.859Z,2.47
2023-09-25T04:14:44.271Z,2.80
2023-09-25T04:17:12.414Z,2.10
2023-09-25T04:19:40.737Z,1.87
2023-09-25T04:22:09.128Z,2.13
2023-09-25T04:24:40.236Z,2.00
2023-09-25T04:27:10.941Z,2.53
2023-09-25T04:29:40.259Z,2.40
2023-09-25T04:32:08.456Z,2.00
2023-09-25T04:34:37.073Z,2.23
2023-09-25T04:37:06.569Z,2.70
2023-09-25T04:39:35.025Z,2.00
2023-09-25T04:42:04.838Z,2.13
2023-09-25T04:44:32.990Z,2.20
2023-09-25T04:47:01.114Z,2.10
2023-09-25T04:49:29.415Z,1.87
2023-09-25T04:51:57.594Z,2.33
2023-09-25T04:54:25.822Z,1.97
2023-09-25T04:56:54.118Z,2.07
2023-09-25T04:59:23.721Z,2.30
2023-09-25T05:01:52.060Z,2.47
2023-09-25T05:04:20.593Z,1.97
2023-09-25T05:06:49.140Z,2.30
2023-09-25T05:09:17.468Z,1.97
2023-09-25T05:11:45.754Z,1.97
2023-09-25T05:14:13.891Z,1.83
2023-09-25T05:16:43.636Z,1.80
2023-09-25T05:19:11.992Z,1.80
2023-09-25T05:21:40.227Z,2.03
2023-09-25T05:24:08.935Z,2.10
2023-09-25T05:26:38.176Z,2.17
2023-09-25T05:29:06.690Z,2.07
2023-09-25T05:31:35.103Z,2.03
2023-09-25T05:34:04.987Z,2.03
2023-09-25T05:36:33.183Z,2.00
2023-09-25T05:39:01.343Z,1.90
2023-09-25T05:41:30.249Z,2.40
2023-09-25T05:43:58.453Z,2.03
2023-09-25T05:46:28.247Z,1.90
2023-09-25T05:48:59.324Z,1.60
2023-09-25T05:51:29.025Z,1.80
2023-09-25T05:53:57.611Z,1.83
2023-09-25T05:56:25.818Z,1.90
2023-09-25T05:58:55.451Z,1.60
2023-09-25T06:01:23.827Z,2.10
2023-09-25T06:03:52.717Z,1.80
2023-09-25T06:06:21.481Z,1.50
2023-09-25T06:08:51.270Z,1.53
2023-09-25T06:11:19.587Z,2.33
2023-09-25T06:13:47.844Z,2.00
2023-09-25T06:16:17.251Z,1.90
2023-09-25T06:18:46.253Z,2.00
2023-09-25T06:21:15.230Z,1.73
2023-09-25T06:23:44.085Z,1.60
2023-09-25T06:26:14.297Z,1.80
2023-09-25T06:28:44.190Z,2.00
2023-09-25T06:31:13.553Z,1.77
2023-09-25T06:33:41.876Z,1.90
2023-09-25T06:36:10.175Z,1.90
2023-09-25T06:38:38.322Z,1.90
2023-09-25T06:41:06.442Z,1.63
2023-09-25T06:43:35.999Z,1.67
2023-09-25T06:46:04.734Z,1.67
2023-09-25T06:48:33.480Z,2.60
2023-09-25T06:51:02.277Z,2.37
2023-09-25T06:53:30.691Z,2.00
2023-09-25T06:55:59.555Z,2.20
2023-09-25T06:58:28.231Z,2.10
2023-09-25T07:00:58.408Z,1.90
2023-09-25T07:03:27.739Z,1.97
2023-09-25T07:05:57.310Z,1.63
2023-09-25T07:08:27.449Z,2.03
2023-09-25T07:10:56.326Z,1.90
2023-09-25T07:13:24.986Z,2.00
2023-09-25T07:15:53.751Z,1.47
2023-09-25T07:18:24.097Z,1.63
2023-09-25T07:20:55.896Z,1.80
2023-09-25T07:23:24.471Z,1.73
2023-09-25T07:26:00.519Z,1.87
2023-09-25T07:28:28.696Z,1.63
2023-09-25T07:30:57.052Z,1.43
2023-09-25T07:33:26.746Z,1.53
2023-09-25T07:35:56.248Z,1.40
2023-09-25T07:38:24.832Z,1.70
2023-09-25T07:41:01.016Z,1.30
2023-09-25T07:46:04.208Z,1.80
2023-09-25T07:48:38.961Z,1.60
2023-09-25T07:51:08.513Z,1.93
2023-09-25T07:53:40.957Z,1.53
2023-09-25T07:56:09.382Z,1.27
2023-09-25T07:58:41.138Z,1.50
2023-09-25T08:01:10.210Z,1.37
2023-09-25T08:03:41.067Z,1.23
2023-09-25T08:06:12.854Z,1.70
2023-09-25T08:08:41.561Z,1.50
2023-09-25T08:11:09.884Z,1.30
2023-09-25T08:13:38.043Z,1.23
2023-09-25T08:16:07.715Z,1.43
2023-09-25T08:18:36.336Z,1.30
2023-09-25T08:21:06.797Z,1.20
2023-09-25T08:23:35.115Z,1.47
2023-09-25T08:26:06.655Z,1.23
2023-09-25T08:28:35.550Z,1.27
2023-09-25T08:31:04.278Z,2.07
2023-09-25T08:33:32.530Z,1.00
2023-09-25T08:36:00.809Z,1.17
2023-09-25T08:38:30.744Z,1.30
2023-09-25T08:40:59.500Z,1.30
2023-09-25T08:43:29.178Z,0.90
2023-09-25T08:45:59.019Z,1.10
2023-09-25T08:48:27.452Z,1.03
2023-09-25T08:50:55.986Z,1.00
2023-09-25T08:53:24.311Z,1.50
2023-09-25T08:55:54.688Z,1.10
2023-09-25T08:58:22.937Z,1.07
2023-09-25T09:00:51.302Z,1.23
2023-09-25T09:03:19.655Z,1.00
2023-09-25T09:05:49.135Z,1.10
2023-09-25T09:08:19.328Z,0.90
2023-09-25T09:10:47.907Z,1.17
2023-09-25T09:13:23.745Z,1.53
2023-09-25T09:15:52.424Z,1.17
2023-09-25T09:18:26.550Z,1.10
2023-09-25T09:20:57.385Z,1.17
2023-09-25T09:23:41.368Z,1.30
2023-09-25T09:26:10.348Z,1.70
2023-09-25T09:28:40.764Z,0.90
2023-09-25T09:31:09.209Z,1.00
2023-09-25T09:33:42.832Z,0.97
2023-09-25T09:36:12.160Z,1.10
2023-09-25T09:38:41.652Z,1.27
2023-09-25T09:41:10.307Z,1.37
2023-09-25T09:43:40.112Z,1.13
2023-09-25T09:46:12.541Z,1.10
2023-09-25T09:48:41.694Z,0.90
2023-09-25T09:51:13.974Z,1.00
2023-09-25T09:53:42.364Z,0.90
2023-09-25T09:56:12.779Z,1.20
2023-09-25T09:58:43.090Z,1.20
2023-09-25T10:01:11.542Z,1.20
2023-09-25T10:03:40.202Z,1.40
2023-09-25T10:06:08.652Z,1.20
2023-09-25T10:08:37.043Z,1.10
2023-09-25T10:11:24.516Z,1.07
2023-09-25T10:13:57.055Z,1.20
2023-09-25T10:16:25.736Z,0.90
2023-09-25T10:18:55.013Z,1.17
2023-09-25T10:21:23.309Z,1.20
2023-09-25T10:23:55.442Z,1.10
2023-09-25T10:26:26.462Z,1.00
2023-09-25T10:29:12.626Z,0.83
2023-09-25T10:31:44.006Z,1.20
2023-09-25T10:34:12.607Z,0.87
2023-09-25T10:36:43.051Z,1.63
2023-09-25T10:39:14.474Z,1.10
2023-09-25T10:41:43.084Z,1.30
2023-09-25T10:44:13.366Z,1.10
2023-09-25T10:46:41.958Z,0.90
2023-09-25T10:49:10.810Z,1.20
2023-09-25T10:51:39.168Z,1.23
2023-09-25T10:54:07.820Z,1.00
2023-09-25T10:56:36.393Z,1.53
2023-09-25T10:59:05.316Z,1.17
2023-09-25T11:01:36.511Z,0.97
2023-09-25T11:04:05.423Z,1.30
2023-09-25T11:06:33.987Z,1.00
2023-09-25T11:09:11.762Z,1.30
2023-09-25T11:11:41.964Z,1.37
2023-09-25T11:14:10.607Z,1.37
2023-09-25T11:16:40.817Z,1.40
2023-09-25T11:19:13.042Z,1.13
2023-09-25T11:21:42.884Z,1.00
2023-09-25T11:24:12.724Z,1.17
2023-09-25T11:26:43.006Z,1.10
2023-09-25T11:29:12.153Z,1.10
2023-09-25T11:32:01.175Z,1.03
2023-09-25T11:34:30.783Z,0.87
2023-09-25T11:36:59.333Z,1.57
2023-09-25T11:39:27.846Z,1.00
2023-09-25T11:41:56.292Z,1.07
2023-09-25T11:44:24.452Z,1.20
2023-09-25T11:46:55.535Z,1.67
2023-09-25T11:49:23.849Z,1.50
2023-09-25T11:51:51.958Z,1.40
2023-09-25T11:54:20.124Z,1.23
2023-09-25T11:56:49.987Z,1.20
2023-09-25T11:59:20.111Z,1.37
2023-09-25T12:01:51.838Z,1.10
2023-09-25T12:04:22.154Z,1.57
2023-09-25T12:06:52.573Z,0.90
2023-09-25T12:09:21.317Z,1.17
2023-09-25T12:11:49.521Z,1.20
2023-09-25T12:14:20.773Z,1.40
2023-09-25T12:16:49.206Z,1.27
2023-09-25T12:19:17.864Z,1.50
2023-09-25T12:21:47.466Z,1.10
2023-09-25T12:24:18.639Z,1.37
2023-09-25T12:26:47.104Z,1.73
2023-09-25T12:29:15.271Z,1.37
2023-09-25T12:31:44.133Z,1.77
2023-09-25T12:34:12.516Z,1.70
2023-09-25T12:36:40.786Z,1.40
2023-09-25T12:39:15.086Z,1.30
2023-09-25T12:41:43.377Z,1.10
2023-09-25T12:44:12.018Z,1.20
2023-09-25T12:46:40.260Z,1.50
2023-09-25T12:49:08.613Z,1.40
2023-09-25T12:51:36.912Z,1.40
2023-09-25T12:54:05.713Z,1.83
2023-09-25T12:56:35.763Z,1.47
2023-09-25T12:59:04.061Z,1.60
2023-09-25T13:01:32.242Z,1.20
2023-09-25T13:04:00.607Z,1.83
2023-09-25T13:06:29.249Z,1.27
2023-09-25T13:08:57.471Z,1.13
2023-09-25T13:11:25.672Z,1.73
2023-09-25T13:13:55.709Z,1.50
2023-09-25T13:16:23.887Z,2.07
2023-09-25T13:18:52.583Z,1.30
2023-09-25T13:21:20.753Z,1.90
2023-09-25T13:23:49.489Z,1.27
2023-09-25T13:26:17.913Z,1.50
2023-09-25T13:28:46.073Z,1.37
2023-09-25T13:31:15.660Z,1.60
2023-09-25T13:33:44.217Z,1.47
2023-09-25T13:36:12.801Z,0.70
2023-09-25T13:38:40.981Z,1.33
2023-09-25T13:41:11.241Z,1.30
2023-09-25T13:43:42.036Z,1.33
2023-09-25T13:46:11.200Z,1.40
2023-09-25T13:48:40.850Z,1.40
2023-09-25T13:51:09.148Z,1.90
2023-09-25T13:53:38.937Z,1.37
2023-09-25T13:56:07.630Z,1.47
2023-09-25T13:58:36.009Z,1.30
2023-09-25T14:01:06.877Z,1.40
2023-09-25T14:03:35.177Z,1.20
2023-09-25T14:06:09.199Z,1.70
2023-09-25T14:08:37.862Z,1.33
2023-09-25T14:11:07.727Z,1.40
2023-09-25T14:13:36.240Z,1.70
2023-09-25T14:16:07.234Z,1.27
2023-09-25T14:18:36.054Z,2.67
2023-09-25T14:21:04.285Z,1.60
2023-09-25T14:23:34.060Z,1.97
2023-09-25T14:26:02.258Z,2.07
2023-09-25T14:28:31.261Z,2.13
2023-09-25T14:31:00.273Z,1.20
2023-09-25T14:33:28.963Z,1.57
2023-09-25T14:35:57.134Z,1.80
2023-09-25T14:38:25.299Z,1.70
2023-09-25T14:40:55.331Z,1.43
2023-09-25T14:43:23.657Z,1.57
2023-09-25T14:45:51.882Z,1.57
2023-09-25T14:48:20.807Z,1.57
2023-09-25T14:50:48.945Z,1.63
2023-09-25T14:53:17.111Z,1.50
2023-09-25T14:55:56.220Z,1.07
2023-09-25T14:58:28.013Z,1.27
2023-09-25T15:00:59.874Z,2.03
2023-09-25T15:03:29.386Z,1.67
2023-09-25T15:05:57.719Z,1.50
2023-09-25T15:08:26.888Z,1.80
2023-09-25T15:10:56.311Z,2.17
2023-09-25T15:13:24.870Z,1.87
2023-09-25T15:15:54.914Z,1.67
2023-09-25T15:18:23.087Z,1.70
2023-09-25T15:20:51.221Z,1.77
2023-09-25T15:23:19.888Z,1.63
2023-09-25T15:25:48.112Z,2.30
2023-09-25T15:28:16.264Z,1.80
2023-09-25T15:30:44.739Z,1.57
2023-09-25T15:33:14.296Z,1.63
2023-09-25T15:35:42.470Z,1.10
2023-09-25T15:38:10.992Z,1.77
2023-09-25T15:40:40.438Z,2.20
2023-09-25T15:43:08.741Z,1.90
2023-09-25T15:45:37.745Z,1.40
2023-09-25T15:48:06.759Z,1.57
2023-09-25T15:50:36.326Z,1.80
2023-09-25T15:53:04.716Z,1.47
2023-09-25T15:55:32.890Z,2.67
2023-09-25T15:58:01.054Z,1.50
2023-09-25T16:00:30.622Z,1.70
2023-09-25T16:02:58.799Z,1.70
2023-09-25T16:05:26.986Z,1.83
2023-09-25T16:07:56.594Z,1.83
2023-09-25T16:10:24.788Z,1.63
2023-09-25T16:12:52.993Z,1.93
2023-09-25T16:15:21.382Z,2.07
2023-09-25T16:17:49.568Z,1.63
2023-09-25T16:20:17.909Z,1.70
2023-09-25T16:22:46.476Z,1.97
2023-09-25T16:25:16.219Z,2.10
2023-09-25T16:27:45.225Z,1.90
2023-09-25T16:30:13.928Z,2.10
2023-09-25T16:32:42.194Z,1.80
2023-09-25T16:35:10.694Z,2.37
2023-09-25T16:37:38.908Z,2.10
2023-09-25T16:40:08.617Z,1.60
2023-09-25T16:42:38.304Z,2.10
2023-09-25T16:45:07.715Z,1.97
2023-09-25T16:47:35.931Z,2.20
2023-09-25T16:50:05.447Z,2.10
2023-09-25T16:52:33.683Z,2.00
2023-09-25T16:55:02.057Z,2.73
2023-09-25T16:57:30.909Z,2.50
2023-09-25T17:00:01.226Z,2.30
2023-09-25T17:02:30.215Z,2.43
2023-09-25T17:04:58.413Z,2.47
2023-09-25T17:07:27.078Z,2.60
2023-09-25T17:09:55.400Z,2.57
2023-09-25T17:12:23.527Z,2.73
2023-09-25T17:14:55.771Z,1.83
2023-09-25T17:17:25.403Z,2.50
2023-09-25T17:19:53.721Z,2.67
2023-09-25T17:22:22.308Z,2.57
2023-09-25T17:24:50.509Z,2.67
2023-09-25T17:27:19.090Z,2.70
2023-09-25T17:29:47.798Z,2.60
2023-09-25T17:32:16.053Z,2.70
2023-09-25T17:34:48.510Z,2.07
2023-09-25T17:37:16.677Z,2.13
2023-09-25T17:39:44.921Z,2.07
2023-09-25T17:42:13.106Z,2.07
2023-09-25T17:44:41.280Z,2.57
2023-09-25T17:47:09.959Z,2.30
2023-09-25T17:49:38.214Z,2.47
2023-09-25T17:52:21.658Z,2.40
2023-09-25T17:54:52.346Z,2.63
2023-09-25T17:57:21.461Z,2.83
2023-09-25T17:59:49.726Z,2.20
2023-09-25T18:02:18.928Z,2.50
2023-09-25T18:04:47.536Z,2.23
2023-09-25T18:07:17.299Z,2.60
2023-09-25T18:09:46.267Z,3.03
2023-09-25T18:12:14.446Z,2.87
2023-09-25T18:14:42.578Z,2.37
2023-09-25T18:17:11.222Z,2.27
2023-09-25T18:19:39.425Z,2.73
2023-09-25T18:22:07.560Z,2.33
2023-09-25T18:24:37.968Z,2.90
2023-09-25T18:27:06.507Z,2.20
2023-09-25T18:29:36.539Z,2.63
2023-09-25T18:32:05.963Z,2.33
2023-09-25T18:34:36.706Z,2.50
2023-09-25T18:37:05.001Z,2.50
2023-09-25T18:39:33.667Z,2.87
2023-09-25T18:42:03.219Z,2.63
2023-09-25T18:44:31.464Z,2.37
2023-09-25T18:47:00.025Z,2.17
2023-09-25T18:49:28.253Z,2.40
2023-09-25T18:51:56.493Z,2.00
2023-09-25T18:54:24.688Z,2.00
2023-09-25T18:56:54.124Z,2.37
2023-09-25T18:59:23.743Z,2.33
2023-09-25T19:01:52.662Z,1.83
2023-09-25T19:04:20.912Z,2.33
2023-09-25T19:06:49.116Z,2.43
2023-09-25T19:09:17.418Z,2.27
2023-09-25T19:11:45.736Z,2.60
2023-09-25T19:14:13.938Z,2.20
2023-09-25T19:16:44.160Z,1.63
2023-09-25T19:19:12.410Z,1.90
2023-09-25T19:21:40.689Z,2.10
2023-09-25T19:24:09.649Z,1.93
2023-09-25T19:26:37.906Z,2.30
2023-09-25T19:29:06.144Z,1.80
2023-09-25T19:31:40.031Z,1.80
2023-09-25T19:34:13.429Z,2.10
2023-09-25T19:36:42.608Z,2.00
2023-09-25T19:39:10.858Z,1.63
2023-09-25T19:41:39.131Z,2.07
2023-09-25T19:44:08.264Z,1.80
2023-09-25T19:46:37.462Z,2.40
2023-09-25T19:49:06.441Z,2.73
2023-09-25T19:51:39.407Z,1.97
2023-09-25T19:54:08.483Z,1.90
2023-09-25T19:56:36.804Z,1.90
2023-09-25T19:59:04.984Z,1.87
2023-09-25T20:01:33.294Z,2.00
2023-09-25T20:04:02.148Z,1.70
2023-09-25T20:06:30.432Z,1.43
2023-09-25T20:09:00.012Z,1.50
2023-09-25T20:11:28.640Z,2.10
2023-09-25T20:13:57.867Z,1.47
2023-09-25T20:16:26.275Z,1.60
2023-09-25T20:18:55.397Z,1.50
2023-09-25T20:21:26.760Z,1.90
2023-09-25T20:23:55.442Z,1.70
2023-09-25T20:26:25.183Z,1.70
2023-09-25T20:28:53.452Z,1.67
2023-09-25T20:31:21.703Z,1.60
2023-09-25T20:33:50.622Z,2.00
2023-09-25T20:36:19.401Z,2.20
2023-09-25T20:38:47.557Z,1.70
2023-09-25T20:41:15.731Z,1.97
2023-09-25T20:43:45.260Z,1.77
2023-09-25T20:46:14.079Z,1.70
2023-09-25T20:48:43.035Z,2.30
2023-09-25T20:51:15.074Z,2.27
2023-09-25T20:53:44.641Z,1.63
2023-09-25T20:56:12.818Z,1.50
2023-09-25T20:58:41.057Z,1.30
2023-09-25T21:01:10.967Z,1.57
2023-09-25T21:03:39.256Z,2.00
2023-09-25T21:06:09.264Z,1.73
2023-09-25T21:08:37.650Z,1.83
2023-09-25T21:11:05.845Z,1.67
2023-09-25T21:13:35.232Z,1.67
2023-09-25T21:16:04.382Z,1.87
2023-09-25T21:18:34.074Z,1.77
2023-09-25T21:21:02.264Z,1.70
2023-09-25T21:23:30.906Z,1.63
2023-09-25T21:25:59.292Z,1.77
2023-09-25T21:28:27.520Z,1.97
2023-09-25T21:30:56.080Z,1.70
2023-09-25T21:33:24.236Z,1.83
2023-09-25T21:35:53.769Z,1.70
2023-09-25T21:38:22.381Z,1.40
2023-09-25T21:40:50.542Z,1.53
2023-09-25T21:43:18.729Z,1.90
2023-09-25T21:45:47.421Z,2.10
2023-09-25T21:48:15.677Z,1.90
2023-09-25T21:50:43.816Z,1.40
2023-09-25T21:53:13.447Z,1.80
2023-09-25T21:55:41.608Z,1.70
2023-09-25T21:58:09.780Z,1.60
2023-09-25T22:00:38.103Z,1.70
2023-09-25T22:03:07.007Z,1.60
2023-09-25T22:05:35.339Z,1.67
2023-09-25T22:08:03.717Z,1.40
2023-09-25T22:10:33.806Z,2.00
2023-09-25T22:13:02.966Z,1.57
2023-09-25T22:15:32.409Z,1.40
2023-09-25T22:18:00.644Z,1.70
2023-09-25T22:20:28.777Z,1.90
2023-09-25T22:22:58.382Z,1.60
2023-09-25T22:25:26.656Z,1.83
2023-09-25T22:27:56.680Z,1.33
2023-09-25T22:30:25.135Z,1.90
2023-09-25T22:32:53.315Z,1.73
2023-09-25T22:35:21.574Z,2.50
2023-09-25T22:38:06.493Z,2.20
2023-09-25T22:40:36.791Z,1.90
2023-09-25T22:43:07.715Z,2.07
2023-09-25T22:45:36.494Z,1.77
2023-09-25T22:48:05.737Z,2.13
2023-09-25T22:50:34.142Z,1.73
2023-09-25T22:53:02.298Z,2.40
2023-09-25T22:55:30.448Z,1.93
2023-09-25T22:57:59.015Z,2.20
2023-09-25T23:00:28.612Z,2.30
2023-09-25T23:02:58.616Z,1.77
2023-09-25T23:05:27.517Z,2.20
2023-09-25T23:07:56.071Z,2.07
2023-09-25T23:10:24.589Z,1.87
2023-09-25T23:12:53.186Z,1.80
2023-09-25T23:15:21.354Z,1.93
2023-09-25T23:17:50.890Z,2.00
2023-09-25T23:20:22.339Z,2.23
2023-09-25T23:22:52.321Z,2.43
2023-09-25T23:25:23.154Z,2.03
2023-09-25T23:27:52.225Z,2.67
2023-09-25T23:30:23.125Z,2.10
2023-09-25T23:32:53.852Z,2.20
2023-09-25T23:35:22.141Z,2.30
2023-09-25T23:37:50.689Z,2.30
2023-09-25T23:40:22.080Z,2.13
2023-09-25T23:42:51.176Z,1.97
2023-09-25T23:45:19.387Z,3.07
2023-09-25T23:47:49.515Z,2.07
2023-09-25T23:50:20.188Z,2.50
2023-09-25T23:52:49.304Z,2.20
2023-09-25T23:55:17.847Z,2.67
2023-09-25T23:57:46.006Z,2.33
